Time;durP1;ratioP1;P1;durP2;ratioP2;P2;SDS_P1;SDS_P2;PMS_P1;PMS_P2;Temp;Humidity;BMP_temperature;BMP_pressure;BME280_temperature;BME280_humidity;BME280_pressure;Samples;Min_cycle;Max_cycle;Signal;HPM_P1;HPM_P2
2024/03/19 00:01:00;;;;;;;2.50;2.30;;;;;;;4.60;100.00;98881.20;104450;1270;69523;-60
2024/03/19 00:03:31;;;;;;;2.70;2.50;;;;;;;4.62;100.00;98874.37;105029;1257;72439;-61
2024/03/19 00:05:59;;;;;;;2.50;2.30;;;;;;;4.69;100.00;98878.19;104698;1255;61368;-61
2024/03/19 00:08:27;;;;;;;2.50;2.30;;;;;;;4.67;100.00;98878.41;104885;1254;60749;-62
2024/03/19 00:10:54;;;;;;;;;;;;;;;4.58;100.00;98875.57;104685;1254;74738;-61
2024/03/19 00:13:22;;;;;;;2.50;2.10;;;;;;;4.44;100.00;98865.56;104357;1259;69123;-61
2024/03/19 00:15:51;;;;;;;2.30;2.20;;;;;;;4.45;100.00;98864.67;104587;1254;72490;-60
2024/03/19 00:18:18;;;;;;;3.80;2.00;;;;;;;4.47;100.00;98861.66;104576;1251;61604;-60
2024/03/19 00:20:46;;;;;;;3.40;2.20;;;;;;;4.52;100.00;98863.59;104544;1254;61307;-62
2024/03/19 00:23:13;;;;;;;1.90;1.70;;;;;;;4.61;100.00;98869.89;104940;1257;74577;-60
2024/03/19 00:25:41;;;;;;;2.00;1.80;;;;;;;4.67;100.00;98868.86;104978;1251;69026;-62
2024/03/19 00:28:08;;;;;;;2.00;1.80;;;;;;;4.64;100.00;98866.01;105207;1252;72502;-61
2024/03/19 00:30:36;;;;;;;1.50;1.40;;;;;;;4.67;100.00;98869.38;105067;1255;62988;-60
2024/03/19 00:33:05;;;;;;;1.30;1.20;;;;;;;4.65;100.00;98868.76;104797;1264;61247;-59
2024/03/19 00:35:33;;;;;;;1.30;1.10;;;;;;;4.70;100.00;98863.55;104675;1252;74840;-60
2024/03/19 00:38:01;;;;;;;1.10;1.10;;;;;;;4.71;100.00;98856.93;104492;1254;70119;-61
2024/03/19 00:40:28;;;;;;;1.20;1.10;;;;;;;4.74;100.00;98851.48;104729;1260;72325;-60
2024/03/19 00:42:56;;;;;;;1.10;1.10;;;;;;;4.76;100.00;98843.75;104904;1257;61544;-61
2024/03/19 00:45:23;;;;;;;1.30;1.20;;;;;;;4.80;100.00;98842.08;104778;1254;62129;-61
2024/03/19 00:47:51;;;;;;;1.30;1.20;;;;;;;4.82;100.00;98843.73;104993;1256;75958;-61
2024/03/19 00:50:18;;;;;;;1.00;1.00;;;;;;;4.84;100.00;98845.42;104969;1257;68999;-61
2024/03/19 00:52:46;;;;;;;1.20;1.10;;;;;;;4.89;100.00;98845.42;104647;1251;72191;-62
2024/03/19 00:55:14;;;;;;;1.20;1.10;;;;;;;4.92;100.00;98840.30;104907;1251;61336;-60
2024/03/19 00:57:41;;;;;;;1.20;1.10;;;;;;;4.91;100.00;98843.45;104476;1269;60930;-62
2024/03/19 01:00:11;;;;;;;1.20;1.10;;;;;;;4.87;100.00;98840.08;104749;1251;74494;-60
2024/03/19 01:02:38;;;;;;;1.40;1.30;;;;;;;4.87;100.00;98842.52;105067;1253;70070;-62
2024/03/19 01:05:09;;;;;;;1.40;1.10;;;;;;;4.90;100.00;98841.21;104598;1253;72383;-61
2024/03/19 01:07:41;;;;;;;1.50;1.40;;;;;;;4.95;100.00;98842.80;104804;1261;63774;-61
2024/03/19 01:10:09;;;;;;;2.80;1.60;;;;;;;4.99;100.00;98838.68;104936;1252;61308;-60
2024/03/19 01:12:39;;;;;;;;;;;;;;;4.99;100.00;98844.05;104728;1252;74484;-60
2024/03/19 01:15:08;;;;;;;1.80;1.40;;;;;;;5.02;100.00;98840.48;104588;1259;69791;-59
2024/03/19 01:17:36;;;;;;;4.20;1.90;;;;;;;5.04;100.00;98841.61;104989;1253;72924;-60
2024/03/19 01:20:04;;;;;;;4.00;2.20;;;;;;;5.06;100.00;98847.80;104673;1256;61362;-59
2024/03/19 01:22:32;;;;;;;2.30;1.80;;;;;;;5.08;100.00;98847.92;104447;1255;61302;-60
2024/03/19 01:25:00;;;;;;;1.70;1.60;;;;;;;5.08;100.00;98848.45;104560;1256;75093;-59
2024/03/19 01:27:28;;;;;;;2.60;1.90;;;;;;;5.12;100.00;98845.19;104930;1263;69788;-60
2024/03/19 01:29:55;;;;;;;3.10;1.50;;;;;;;5.14;100.00;98845.84;104838;1254;73355;-60
2024/03/19 01:32:23;;;;;;;1.50;1.40;;;;;;;5.14;100.00;98847.40;104737;1253;61456;-60
2024/03/19 01:34:51;;;;;;;;;;;;;;;5.13;100.00;98849.50;104558;1254;62280;-60
2024/03/19 01:37:18;;;;;;;1.00;1.00;;;;;;;5.10;100.00;98850.45;104928;1251;74884;-60
2024/03/19 01:39:46;;;;;;;1.40;1.30;;;;;;;5.08;100.00;98856.63;104471;1266;68521;-61
2024/03/19 01:42:13;;;;;;;;;;;;;;;5.07;100.00;98857.86;104652;1254;71609;-61
2024/03/19 01:44:40;;;;;;;1.30;1.20;;;;;;;5.05;100.00;98859.13;104598;1253;61331;-60
2024/03/19 01:47:08;;;;;;;3.60;1.10;;;;;;;4.98;100.00;98845.83;104843;1251;61271;-59
2024/03/19 01:49:35;;;;;;;1.40;1.30;;;;;;;5.06;100.00;98852.17;104345;1259;74319;-60
2024/03/19 01:52:05;;;;;;;2.40;1.00;;;;;;;5.05;100.00;98856.89;104630;1253;69209;-63
2024/03/19 01:54:33;;;;;;;1.30;0.90;;;;;;;5.02;100.00;98852.98;104833;1257;72332;-60
2024/03/19 01:57:02;;;;;;;1.00;1.00;;;;;;;5.02;100.00;98846.91;104921;1256;61729;-61
2024/03/19 01:59:29;;;;;;;1.00;1.00;;;;;;;5.00;100.00;98848.86;104936;1257;61426;-60
2024/03/19 02:01:56;;;;;;;1.20;1.10;;;;;;;5.00;100.00;98852.02;104794;1253;74468;-60
2024/03/19 02:04:24;;;;;;;1.30;1.20;;;;;;;5.02;100.00;98850.36;104734;1253;69203;-62
2024/03/19 02:06:51;;;;;;;1.40;1.30;;;;;;;5.03;100.00;98850.87;104962;1251;72837;-60
2024/03/19 02:09:19;;;;;;;1.10;1.00;;;;;;;5.04;100.00;98851.01;104406;1254;61428;-61
2024/03/19 02:11:46;;;;;;;1.40;1.20;;;;;;;5.03;100.00;98852.79;104451;1252;61259;-60
2024/03/19 02:14:14;;;;;;;1.40;1.10;;;;;;;5.03;100.00;98853.83;104792;1265;74425;-60
2024/03/19 02:16:42;;;;;;;1.00;1.00;;;;;;;5.03;100.00;98852.95;104314;1257;69716;-60
2024/03/19 02:19:09;;;;;;;0.90;0.90;;;;;;;5.07;100.00;98856.11;104571;1254;72926;-59
2024/03/19 02:21:36;;;;;;;1.10;1.00;;;;;;;5.08;100.00;98854.20;104512;1256;61343;-59
2024/03/19 02:24:04;;;;;;;1.10;1.00;;;;;;;5.08;100.00;98863.23;104855;1253;61381;-60
2024/03/19 02:26:31;;;;;;;0.90;0.90;;;;;;;5.10;100.00;98866.98;104388;1252;74470;-59
2024/03/19 02:29:00;;;;;;;1.20;1.10;;;;;;;5.12;100.00;98870.05;104545;1255;69829;-59
2024/03/19 02:31:29;;;;;;;0.90;0.90;;;;;;;5.10;100.00;98876.70;104445;1253;72561;-59
2024/03/19 02:33:56;;;;;;;0.80;0.80;;;;;;;5.09;100.00;98881.06;104476;1263;61245;-59
2024/03/19 02:36:24;;;;;;;1.30;1.00;;;;;;;5.09;100.00;98884.55;104347;1251;61259;-63
2024/03/19 02:38:51;;;;;;;2.50;2.20;;;;;;;5.07;100.00;98884.97;104409;1273;74914;-59
2024/03/19 02:41:19;;;;;;;3.40;3.00;;;;;;;5.04;100.00;98884.36;104713;1256;69205;-60
2024/03/19 02:43:46;;;;;;;8.10;4.80;;;;;;;5.01;100.00;98882.89;104857;1254;72665;-60
2024/03/19 02:46:14;;;;;;;11.00;5.50;;;;;;;5.01;100.00;98882.38;104369;1253;61480;-59
2024/03/19 02:48:41;;;;;;;10.30;5.90;;;;;;;5.03;100.00;98879.38;104452;1253;61244;-61
2024/03/19 02:51:09;;;;;;;11.80;5.90;;;;;;;5.04;100.00;98881.23;104667;1256;77285;-60
2024/03/19 02:53:37;;;;;;;8.00;5.10;;;;;;;4.95;100.00;98872.15;104543;1250;69457;-59
2024/03/19 02:56:04;;;;;;;;;;;;;;;5.01;100.00;98889.68;104869;1255;71845;-59
2024/03/19 02:58:32;;;;;;;6.90;3.50;;;;;;;5.00;100.00;98891.95;104996;1254;61298;-59
2024/03/19 03:00:59;;;;;;;;;;;;;;;4.99;100.00;98895.64;104566;1261;60764;-59
2024/03/19 03:03:26;;;;;;;4.10;3.00;;;;;;;4.98;100.00;98896.55;104530;1260;75333;-60
2024/03/19 03:05:55;;;;;;;3.80;3.10;;;;;;;4.97;100.00;98896.58;104724;1253;70186;-61
2024/03/19 03:08:22;;;;;;;3.70;2.90;;;;;;;4.97;100.00;98900.94;105655;1251;72869;-60
2024/03/19 03:10:49;;;;;;;2.40;2.10;;;;;;;4.99;100.00;98904.67;104499;1257;61948;-60
2024/03/19 03:13:17;;;;;;;2.40;2.30;;;;;;;4.97;100.00;98908.21;104438;1256;61290;-60
2024/03/19 03:15:45;;;;;;;2.20;2.10;;;;;;;4.98;100.00;98912.50;104489;1254;73384;-61
2024/03/19 03:18:13;;;;;;;1.90;1.80;;;;;;;5.00;100.00;98914.89;104521;1256;69101;-62
2024/03/19 03:20:40;;;;;;;1.50;1.40;;;;;;;5.03;100.00;98910.61;104418;1257;72582;-61
2024/03/19 03:23:08;;;;;;;1.80;1.70;;;;;;;5.07;100.00;98912.95;104762;1254;61377;-60
2024/03/19 03:25:35;;;;;;;;;;;;;;;5.03;100.00;98915.66;104708;1256;61327;-61
2024/03/19 03:28:04;;;;;;;1.90;1.50;;;;;;;5.02;100.00;98917.41;104875;1256;74425;-60
2024/03/19 03:30:31;;;;;;;1.30;1.20;;;;;;;5.02;100.00;98926.29;104640;1267;70056;-60
2024/03/19 03:32:59;;;;;;;1.10;1.00;;;;;;;4.94;100.00;98930.17;104711;1270;72533;-60
2024/03/19 03:35:26;;;;;;;1.00;1.00;;;;;;;4.94;100.00;98931.58;104336;1267;61036;-62
2024/03/19 03:37:54;;;;;;;1.40;1.10;;;;;;;4.94;100.00;98934.89;104559;1254;61362;-61
2024/03/19 03:40:23;;;;;;;1.00;0.90;;;;;;;4.93;100.00;98937.70;104312;1275;74702;-61
2024/03/19 03:42:51;;;;;;;0.70;0.70;;;;;;;4.85;100.00;98926.83;104412;1269;70053;-60
2024/03/19 03:45:26;;;;;;;0.60;0.60;;;;;;;4.91;100.00;98942.11;104896;1253;72421;-62
2024/03/19 03:47:54;;;;;;;0.60;0.60;;;;;;;4.92;100.00;98941.01;104450;1254;61314;-60
2024/03/19 03:50:21;;;;;;;0.50;0.50;;;;;;;4.94;100.00;98943.39;104548;1254;61423;-63
2024/03/19 03:52:49;;;;;;;0.90;0.90;;;;;;;4.97;100.00;98949.91;104666;1255;74460;-61
2024/03/19 03:55:16;;;;;;;0.70;0.70;;;;;;;4.96;100.00;98955.98;104872;1257;70171;-60
2024/03/19 03:57:45;;;;;;;0.90;0.90;;;;;;;4.95;100.00;98957.59;104395;1269;71567;-60
2024/03/19 04:00:14;;;;;;;1.10;1.10;;;;;;;4.99;100.00;98962.52;104420;1256;61442;-61
2024/03/19 04:02:42;;;;;;;1.60;1.20;;;;;;;4.97;100.00;98968.13;104678;1267;60688;-61
2024/03/19 04:05:10;;;;;;;1.20;1.10;;;;;;;5.00;100.00;98969.07;104454;1257;75323;-60
2024/03/19 04:07:42;;;;;;;0.90;0.90;;;;;;;5.00;100.00;98975.52;104587;1256;68167;-60
2024/03/19 04:10:11;;;;;;;0.90;0.90;;;;;;;4.98;100.00;98982.18;104588;1256;72921;-61
2024/03/19 04:12:39;;;;;;;1.10;0.70;;;;;;;4.95;100.00;98985.72;104552;1256;61247;-61
2024/03/19 04:17:25;;;;;;;0.50;0.50;;;;;;;4.36;100.00;98994.53;101495;1289;601319;-60
2024/03/19 04:19:57;;;;;;;0.70;0.70;;;;;;;4.79;100.00;98998.52;103827;1281;61306;-60
2024/03/19 04:22:24;;;;;;;;;;;;;;;4.83;100.00;99003.62;103667;1272;60730;-61
2024/03/19 04:24:52;;;;;;;0.80;0.80;;;;;;;4.84;100.00;99004.48;103744;1264;72841;-60
2024/03/19 04:27:20;;;;;;;1.10;1.00;;;;;;;4.84;100.00;99011.23;103681;1272;69613;-60
2024/03/19 04:29:47;;;;;;;1.00;1.00;;;;;;;4.83;100.00;99013.85;103917;1263;71458;-60
2024/03/19 04:32:15;;;;;;;1.00;1.00;;;;;;;4.83;100.00;99021.17;103765;1264;370424;-60
2024/03/19 04:34:42;;;;;;;1.10;1.10;;;;;;;4.86;100.00;99022.66;104073;1268;59800;-61
2024/03/19 04:37:10;;;;;;;1.00;1.00;;;;;;;4.86;100.00;99024.91;103932;1285;73254;-60
2024/03/19 04:39:37;;;;;;;1.00;1.00;;;;;;;4.87;100.00;99027.32;103945;1266;69631;-60
2024/03/19 04:42:04;;;;;;;1.30;1.20;;;;;;;4.90;100.00;99031.92;104358;1276;72479;-61
2024/03/19 04:44:32;;;;;;;1.30;1.20;;;;;;;4.90;100.00;99038.52;104727;1258;61627;-60
2024/03/19 04:46:59;;;;;;;1.00;1.00;;;;;;;4.88;100.00;99040.66;104937;1259;60655;-61
2024/03/19 04:49:27;;;;;;;1.00;1.00;;;;;;;4.90;100.00;99046.49;104607;1257;73720;-60
2024/03/19 04:51:55;;;;;;;1.20;1.10;;;;;;;4.91;100.00;99051.85;104461;1275;69706;-61
2024/03/19 06:01:12;;;;;;;1.60;1.50;;;;;;;5.25;100.00;99146.06;101754;1290;601745;-60
2024/03/19 06:03:40;;;;;;;1.90;1.80;;;;;;;5.21;100.00;99148.08;104241;1265;60833;-60
2024/03/19 06:06:10;;;;;;;1.80;1.70;;;;;;;5.23;100.00;99154.45;103789;1269;61481;-60
2024/03/19 06:08:39;;;;;;;2.00;1.80;;;;;;;5.23;100.00;99158.64;104707;1255;73205;-62
2024/03/19 06:11:09;;;;;;;1.70;1.60;;;;;;;5.23;100.00;99159.14;104142;1256;71831;-59
2024/03/19 06:13:38;;;;;;;2.10;2.00;;;;;;;5.28;100.00;99163.89;104293;1256;841436;-65
2024/03/19 06:16:06;;;;;;;1.70;1.60;;;;;;;5.31;100.00;99168.31;105159;1251;60753;-61
2024/03/19 06:18:34;;;;;;;1.70;1.60;;;;;;;5.33;100.00;99178.15;104880;1253;62458;-60
2024/03/19 06:21:01;;;;;;;1.80;1.70;;;;;;;5.37;100.00;99180.81;104918;1253;73629;-59
2024/03/19 06:23:31;;;;;;;2.10;2.00;;;;;;;5.40;100.00;99189.41;104352;1253;69060;-60
2024/03/19 06:25:59;;;;;;;1.90;1.80;;;;;;;5.45;100.00;99198.68;104763;1253;71882;-59
2024/03/19 06:28:27;;;;;;;2.00;1.90;;;;;;;5.45;100.00;99208.40;104844;1254;60989;-60
2024/03/19 06:30:55;;;;;;;2.40;2.20;;;;;;;5.46;100.00;99216.73;104594;1251;60508;-62
2024/03/19 06:33:22;;;;;;;2.20;2.00;;;;;;;5.47;100.00;99221.89;104534;1265;74049;-60
2024/03/19 06:35:50;;;;;;;2.20;2.10;;;;;;;5.51;100.00;99225.29;104613;1260;70306;-60
2024/03/19 06:38:18;;;;;;;2.30;2.20;;;;;;;5.52;100.00;99233.26;104711;1269;73472;-60
2024/03/19 06:40:46;;;;;;;2.30;2.20;;;;;;;5.55;100.00;99241.14;104899;1254;60542;-59
2024/03/19 06:43:13;;;;;;;2.40;2.20;;;;;;;5.60;100.00;99245.70;104384;1272;60560;-60
2024/03/19 06:45:41;;;;;;;2.40;2.20;;;;;;;5.64;100.00;99240.88;105261;1256;73617;-62
2024/03/19 06:48:08;;;;;;;2.70;2.50;;;;;;;5.70;100.00;99247.67;104677;1257;69688;-61
2024/03/19 06:50:36;;;;;;;2.20;2.00;;;;;;;5.68;100.00;99251.05;104597;1253;72379;-61
2024/03/19 06:53:04;;;;;;;2.40;2.20;;;;;;;5.57;100.00;99247.00;104880;1269;62483;-60
2024/03/19 06:55:32;;;;;;;2.30;2.10;;;;;;;5.64;100.00;99262.98;104613;1253;60618;-60
2024/03/19 06:57:59;;;;;;;2.20;2.10;;;;;;;5.67;100.00;99268.27;104817;1268;72665;-60
2024/03/19 07:00:27;;;;;;;2.20;2.10;;;;;;;5.68;100.00;99271.55;104616;1258;69222;-61
2024/03/19 07:02:55;;;;;;;2.30;2.20;;;;;;;5.69;100.00;99277.09;104140;1257;72469;-59
2024/03/19 07:05:23;;;;;;;2.80;2.60;;;;;;;5.72;100.00;99286.58;104726;1256;63313;-61
2024/03/19 07:07:57;;;;;;;2.70;2.50;;;;;;;5.77;100.00;99289.39;104582;1256;60563;-61
2024/03/19 07:10:27;;;;;;;2.70;2.50;;;;;;;5.72;100.00;99293.02;104994;1253;72793;-60
2024/03/19 07:12:55;;;;;;;2.40;2.20;;;;;;;5.74;100.00;99297.99;105326;1255;69577;-61
2024/03/19 07:15:23;;;;;;;2.20;2.10;;;;;;;5.76;100.00;99302.27;104392;1269;72139;-62
2024/03/19 07:17:51;;;;;;;2.40;2.20;;;;;;;5.83;100.00;99307.84;104655;1264;61273;-60
2024/03/19 07:20:19;;;;;;;2.20;2.10;;;;;;;5.74;100.00;99286.00;104488;1260;59982;-62
2024/03/19 07:22:47;;;;;;;2.20;2.10;;;;;;;5.93;100.00;99313.99;104877;1253;73648;-61
2024/03/19 07:25:16;;;;;;;2.80;2.60;;;;;;;5.99;100.00;99316.10;104645;1256;68750;-60
2024/03/19 07:27:44;;;;;;;2.50;2.30;;;;;;;6.01;100.00;99317.59;104800;1259;75368;-62
2024/03/19 07:30:12;;;;;;;2.50;2.30;;;;;;;6.00;100.00;99310.52;105131;1252;61613;-59
2024/03/19 07:32:40;;;;;;;2.50;2.30;;;;;;;6.10;100.00;99322.73;105454;1251;60725;-60
2024/03/19 07:35:08;;;;;;;2.70;2.50;;;;;;;6.10;100.00;99324.31;104684;1258;72750;-60
2024/03/19 07:37:37;;;;;;;2.30;2.20;;;;;;;6.08;100.00;99323.50;105224;1255;69790;-62
2024/03/19 07:40:10;;;;;;;3.10;2.80;;;;;;;6.09;100.00;99325.19;104288;1258;72807;-61
2024/03/19 07:42:39;;;;;;;2.90;2.50;;;;;;;6.12;100.00;99326.66;104765;1257;61272;-61
2024/03/19 07:45:07;;;;;;;3.00;2.80;;;;;;;6.12;100.00;99333.80;105421;1251;60496;-61
2024/03/19 07:47:35;;;;;;;3.20;3.00;;;;;;;6.19;100.00;99328.40;105039;1259;75392;-61
2024/03/19 07:50:07;;;;;;;;;;;;;;;6.28;100.00;99330.22;104572;1256;72013;-62
2024/03/19 07:52:35;;;;;;;3.30;3.00;;;;;;;6.28;100.00;99328.30;105348;1255;72774;-60
2024/03/19 07:55:04;;;;;;;3.50;3.30;;;;;;;6.29;100.00;99327.92;105058;1254;62211;-61
2024/03/19 07:57:31;;;;;;;3.70;3.40;;;;;;;6.33;100.00;99330.92;105092;1253;60559;-61
2024/03/19 08:00:09;;;;;;;4.20;3.80;;;;;;;6.40;100.00;99331.92;105611;1257;75993;-60
2024/03/19 08:02:38;;;;;;;4.00;3.60;;;;;;;6.47;100.00;99336.59;105907;1253;68598;-60
2024/03/19 08:05:07;;;;;;;3.70;3.40;;;;;;;6.55;100.00;99335.11;104775;1254;74176;-60
2024/03/19 08:07:36;;;;;;;3.80;3.50;;;;;;;6.59;100.00;99337.95;104607;1256;59760;-63
2024/03/19 08:10:04;;;;;;;4.10;3.80;;;;;;;6.68;100.00;99349.16;104535;1256;60714;-61
2024/03/19 08:12:33;;;;;;;3.90;3.60;;;;;;;6.76;100.00;99346.32;104758;1256;73633;-61
2024/03/19 08:15:03;;;;;;;4.10;3.80;;;;;;;6.85;100.00;99347.59;104218;1253;71843;-61
2024/03/19 08:17:32;;;;;;;4.00;3.60;;;;;;;6.94;100.00;99352.02;105586;1254;72698;-63
2024/03/19 08:20:00;;;;;;;4.20;3.90;;;;;;;7.04;100.00;99352.52;104738;1253;60767;-61
2024/03/19 08:22:28;;;;;;;3.90;3.60;;;;;;;7.14;100.00;99359.19;104824;1258;62344;-62
2024/03/19 08:24:55;;;;;;;4.90;4.20;;;;;;;7.24;100.00;99360.96;104429;1253;73689;-62
2024/03/19 08:27:25;;;;;;;3.70;3.40;;;;;;;7.29;100.00;99367.92;104904;1257;69462;-62
2024/03/19 08:29:53;;;;;;;3.80;3.50;;;;;;;7.32;100.00;99369.58;104709;1253;73517;-62
2024/03/19 08:32:30;;;;;;;3.30;3.00;;;;;;;7.32;100.00;99370.27;104881;1259;61067;-61
2024/03/19 08:34:58;;;;;;;3.00;2.80;;;;;;;7.30;100.00;99376.77;104657;1257;61703;-60
2024/03/19 08:37:26;;;;;;;2.90;2.70;;;;;;;7.30;100.00;99378.19;104474;1257;73731;-62
2024/03/19 08:39:54;;;;;;;3.70;3.40;;;;;;;7.31;100.00;99381.64;104507;1262;68349;-62
2024/03/19 08:42:22;;;;;;;3.50;3.20;;;;;;;7.32;100.00;99387.71;104584;1259;73621;-62
2024/03/19 08:44:50;;;;;;;3.10;2.90;;;;;;;7.33;100.00;99391.16;104595;1254;61408;-61
2024/03/19 08:47:17;;;;;;;3.40;3.10;;;;;;;7.33;100.00;99392.54;104379;1263;62072;-62
2024/03/19 08:49:45;;;;;;;3.40;3.20;;;;;;;7.34;100.00;99399.13;104573;1255;74800;-61
2024/03/19 08:52:13;;;;;;;3.60;3.30;;;;;;;7.38;100.00;99400.39;104970;1253;69667;-62
2024/03/19 08:54:40;;;;;;;3.20;3.00;;;;;;;7.46;100.00;99405.19;105021;1259;72753;-65
2024/03/19 08:57:11;;;;;;;3.50;3.20;;;;;;;7.51;100.00;99407.30;105034;1253;60540;-62
2024/03/19 08:59:39;;;;;;;3.20;3.00;;;;;;;7.59;100.00;99411.53;104330;1267;60725;-60
2024/03/19 09:02:09;;;;;;;3.50;3.30;;;;;;;7.61;100.00;99415.16;104459;1260;72460;-60
2024/03/19 09:04:45;;;;;;;3.30;3.10;;;;;;;7.61;100.00;99422.67;104600;1253;71992;-63
2024/03/19 09:07:13;;;;;;;3.20;2.90;;;;;;;7.65;100.00;99428.45;104343;1257;72539;-60
2024/03/19 09:09:44;;;;;;;3.80;3.50;;;;;;;7.70;100.00;99427.73;104845;1252;60784;-66
2024/03/19 09:12:12;;;;;;;3.80;3.50;;;;;;;7.76;100.00;99435.20;104740;1269;60547;-61
2024/03/19 09:14:40;;;;;;;4.20;3.90;;;;;;;7.82;100.00;99438.68;104545;1257;73944;-61
2024/03/19 09:17:07;;;;;;;;;;;;;;;7.79;100.00;99441.57;104400;1259;69480;-61
2024/03/19 09:19:39;;;;;;;4.30;3.90;;;;;;;7.80;100.00;99443.29;105212;1259;75136;-62
2024/03/19 09:22:07;;;;;;;4.10;3.80;;;;;;;7.82;100.00;99442.51;104610;1255;60752;-59
2024/03/19 09:24:36;;;;;;;3.40;3.20;;;;;;;7.91;100.00;99439.41;105567;1253;62179;-60
2024/03/19 09:27:06;;;;;;;4.20;3.80;;;;;;;7.98;100.00;99441.27;105285;1253;77004;-59
2024/03/19 09:29:33;;;;;;;4.00;3.60;;;;;;;8.09;100.00;99441.59;104858;1253;71785;-60
2024/03/19 09:32:02;;;;;;;3.90;3.60;;;;;;;8.19;100.00;99440.17;104448;1258;71902;-61
2024/03/19 09:34:30;;;;;;;3.70;3.40;;;;;;;8.27;100.00;99438.66;104833;1257;64140;-63
2024/03/19 09:36:58;;;;;;;;;;;;;;;8.38;100.00;99445.25;104662;1253;60626;-59
2024/03/19 09:39:26;;;;;;;2.90;2.70;;;;;;;8.46;100.00;99450.23;104526;1260;74805;-60
2024/03/19 09:42:10;;;;;;;3.40;3.10;;;;;;;8.51;100.00;99452.11;105433;1253;71717;-60
2024/03/19 09:44:39;;;;;;;3.10;2.70;;;;;;;8.55;100.00;99456.13;104552;1259;71703;-59
2024/03/19 09:47:09;;;;;;;3.10;2.80;;;;;;;8.50;100.00;99460.38;104376;1258;61562;-59
2024/03/19 09:49:37;;;;;;;2.80;2.60;;;;;;;8.51;100.00;99460.36;104316;1267;60395;-59
2024/03/19 09:52:05;;;;;;;2.40;2.30;;;;;;;8.64;100.00;99461.61;104495;1258;75560;-61
2024/03/19 09:54:32;;;;;;;3.00;2.60;;;;;;;8.66;100.00;99463.99;104687;1259;70465;-60
2024/03/19 09:57:03;;;;;;;3.00;2.80;;;;;;;8.68;100.00;99464.77;104728;1253;72884;-61
2024/03/19 09:59:31;;;;;;;2.60;2.40;;;;;;;8.72;100.00;99464.77;104494;1256;60562;-61
2024/03/19 10:01:59;;;;;;;;;;;;;;;8.80;100.00;99467.99;105122;1253;60598;-60
2024/03/19 10:04:27;;;;;;;2.60;2.40;;;;;;;8.90;100.00;99467.95;104404;1258;73965;-60
2024/03/19 10:06:54;;;;;;;3.10;2.70;;;;;;;9.01;100.00;99466.83;104850;1257;70641;-59
2024/03/19 10:09:30;;;;;;;2.90;2.70;;;;;;;9.07;100.00;99474.80;105071;1255;72847;-61
2024/03/19 10:11:58;;;;;;;2.80;2.60;;;;;;;9.06;100.00;99474.84;104354;1254;61515;-59
2024/03/19 10:14:26;;;;;;;2.90;2.70;;;;;;;9.00;100.00;99479.98;104803;1256;61259;-58
2024/03/19 10:16:53;;;;;;;3.00;2.80;;;;;;;8.96;100.00;99483.96;105400;1256;74245;-60
2024/03/19 10:19:21;;;;;;;2.70;2.50;;;;;;;8.99;100.00;99484.22;105435;1252;69977;-61
2024/03/19 10:21:49;;;;;;;2.70;2.50;;;;;;;9.11;100.00;99480.42;104992;1260;75974;-62
2024/03/19 10:24:17;;;;;;;;;;;;;;;9.20;100.00;99480.42;105291;1259;61760;-60
2024/03/19 10:26:46;;;;;;;2.40;2.20;;;;;;;9.21;100.00;99485.96;106086;1258;59501;-60
2024/03/19 10:29:15;;;;;;;2.30;2.20;;;;;;;9.18;100.00;99486.63;105405;1252;76890;-59
2024/03/19 10:31:43;;;;;;;3.70;2.70;;;;;;;9.23;100.00;99486.42;105254;1259;73224;-60
2024/03/19 10:34:30;;;;;;;2.70;2.50;;;;;;;9.30;100.00;99494.20;105962;1257;72476;-60
2024/03/19 10:36:58;;;;;;;2.40;2.20;;;;;;;9.38;100.00;99494.92;104872;1254;61789;-59
2024/03/19 10:39:25;;;;;;;3.50;2.70;;;;;;;9.36;100.00;99499.20;104960;1257;61668;-60
2024/03/19 10:41:53;;;;;;;2.10;2.00;;;;;;;9.35;100.00;99499.40;105080;1259;74456;-64
2024/03/19 10:44:21;;;;;;;2.00;1.90;;;;;;;9.40;100.00;99507.59;105320;1253;69806;-60
2024/03/19 10:46:49;;;;;;;2.50;2.30;;;;;;;9.17;100.00;99505.55;104905;1253;71985;-60
2024/03/19 10:49:23;;;;;;;2.50;2.30;;;;;;;9.00;100.00;99510.73;104966;1254;61268;-60
2024/03/19 10:52:02;;;;;;;2.70;2.40;;;;;;;9.25;100.00;99509.42;105205;1253;61314;-61
2024/03/19 10:54:36;;;;;;;2.10;2.00;;;;;;;9.33;100.00;99513.98;104429;1258;74708;-60
2024/03/19 10:57:05;;;;;;;2.40;2.00;;;;;;;9.33;100.00;99515.38;104947;1253;70594;-60
2024/03/19 10:59:37;;;;;;;1.90;1.80;;;;;;;9.36;100.00;99517.55;105287;1253;71744;-59
2024/03/19 11:02:06;;;;;;;1.90;1.80;;;;;;;9.40;100.00;99518.98;105020;1253;63494;-61
2024/03/19 11:04:36;;;;;;;1.90;1.80;;;;;;;9.46;100.00;99524.51;104460;1252;61344;-60
2024/03/19 11:07:04;;;;;;;2.10;2.00;;;;;;;9.42;100.00;99524.66;104764;1256;77049;-60
2024/03/19 11:09:33;;;;;;;1.60;1.50;;;;;;;9.48;100.00;99526.89;104949;1272;69366;-59
2024/03/19 11:12:01;;;;;;;1.90;1.80;;;;;;;9.62;100.00;99524.73;104236;1262;72956;-62
2024/03/19 11:14:30;;;;;;;2.30;2.10;;;;;;;9.78;100.00;99519.70;104749;1262;62963;-61
2024/03/19 11:16:58;;;;;;;1.80;1.70;;;;;;;9.95;100.00;99522.70;104300;1275;62824;-60
2024/03/19 11:19:28;;;;;;;;;;;;;;;10.00;100.00;99519.48;104888;1262;77793;-60
2024/03/19 11:21:57;;;;;;;2.00;1.90;;;;;;;10.04;100.00;99516.89;104651;1260;70292;-61
2024/03/19 11:24:37;;;;;;;1.70;1.60;;;;;;;10.10;100.00;99515.93;104834;1256;75024;-61
2024/03/19 11:27:05;;;;;;;1.90;1.80;;;;;;;10.21;100.00;99520.18;104643;1272;61358;-62
2024/03/19 11:29:35;;;;;;;1.80;1.70;;;;;;;10.31;100.00;99517.32;105657;1254;61448;-60
2024/03/19 11:32:08;;;;;;;1.80;1.70;;;;;;;10.40;100.00;99519.04;104852;1259;73948;-59
2024/03/19 11:34:36;;;;;;;1.80;1.70;;;;;;;10.46;100.00;99520.50;104496;1257;69679;-60
2024/03/19 11:37:05;;;;;;;;;;;;;;;10.52;100.00;99519.20;104613;1261;72470;-60
2024/03/19 11:39:34;;;;;;;1.60;1.50;;;;;;;10.59;100.00;99518.55;104635;1260;62022;-61
2024/03/19 11:42:02;;;;;;;1.80;1.70;;;;;;;10.57;97.44;99518.29;104359;1269;60814;-60
2024/03/19 11:44:29;;;;;;;1.60;1.50;;;;;;;10.46;89.60;99519.11;104535;1253;76322;-61
2024/03/19 11:46:57;;;;;;;1.80;1.70;;;;;;;10.44;91.69;99517.47;104922;1257;69484;-61
2024/03/19 11:49:27;;;;;;;1.70;1.60;;;;;;;10.46;98.27;99518.95;104748;1261;72503;-61
2024/03/19 11:52:11;;;;;;;1.90;1.70;;;;;;;10.56;98.96;99521.66;104719;1257;61425;-59
2024/03/19 11:54:41;;;;;;;1.70;1.60;;;;;;;10.66;98.53;99520.66;104767;1253;61812;-60
2024/03/19 11:57:14;;;;;;;1.20;1.10;;;;;;;10.67;97.07;99523.42;104991;1269;76151;-60
2024/03/19 11:59:41;;;;;;;2.00;1.40;;;;;;;10.70;93.03;99520.83;104455;1257;68713;-60
2024/03/19 12:02:11;;;;;;;2.20;1.70;;;;;;;10.79;91.84;99519.38;104367;1253;71469;-60
2024/03/19 12:04:40;;;;;;;1.50;1.30;;;;;;;10.87;91.93;99519.75;104748;1254;61435;-60
2024/03/19 12:07:09;;;;;;;1.50;1.40;;;;;;;10.88;91.70;99521.42;104547;1258;61906;-60
2024/03/19 12:09:37;;;;;;;1.60;1.50;;;;;;;10.89;91.44;99519.29;104264;1260;73394;-60
2024/03/19 12:12:05;;;;;;;1.70;1.60;;;;;;;10.93;92.27;99522.42;105059;1257;72482;-61
2024/03/19 12:14:33;;;;;;;1.70;1.60;;;;;;;11.00;92.03;99520.52;104459;1259;72532;-60
2024/03/19 12:17:00;;;;;;;1.90;1.80;;;;;;;10.98;91.14;99520.80;104974;1252;60930;-61
2024/03/19 12:19:29;;;;;;;1.60;1.50;;;;;;;10.93;89.90;99522.23;104875;1252;61432;-61
2024/03/19 12:21:56;;;;;;;1.50;1.40;;;;;;;10.90;88.58;99524.65;105267;1252;74938;-59
2024/03/19 12:24:24;;;;;;;1.50;1.40;;;;;;;10.94;88.14;99523.62;104623;1259;68891;-58
2024/03/19 12:26:52;;;;;;;1.50;1.40;;;;;;;10.95;86.69;99527.23;104414;1257;75364;-59
2024/03/19 12:29:21;;;;;;;2.00;1.60;;;;;;;10.96;87.03;99524.59;104400;1259;61246;-59
2024/03/19 12:32:03;;;;;;;1.50;1.40;;;;;;;10.97;84.69;99527.19;105347;1257;61365;-60
2024/03/19 12:34:37;;;;;;;1.90;1.80;;;;;;;10.97;83.67;99523.48;104760;1257;75224;-59
2024/03/19 12:37:09;;;;;;;1.50;1.40;;;;;;;10.96;84.90;99522.98;104366;1265;68734;-59
2024/03/19 12:39:36;;;;;;;1.70;1.60;;;;;;;10.92;84.17;99520.91;104662;1258;73559;-59
2024/03/19 12:42:13;;;;;;;1.90;1.80;;;;;;;10.91;84.17;99522.85;104568;1259;61320;-60
2024/03/19 12:44:46;;;;;;;1.50;1.40;;;;;;;10.94;83.86;99522.77;104630;1256;61838;-60